Terminal Aerodrome Forecast
Issued by NWS

Home | Current Version | Previous Version | Text Only | Print | Product List | Glossary On
Versions: 1 2 3 4 5 6 7 8 9 10 11 12 13 14 15 16 17 18 19 20 21 22 23 24 25 26 27 28 29 30 31 32 33 34 35 36 37 38 39 40 41 42 43 44 45 46 47 48 49 50
000
FTAK31 PANC 062331
TAFADL
TAF
PADL 062331Z 0700/0724 18016G24KT 3SM -SN BKN030
      TEMPO 0700/0704 1 1/2SM -SN BR OVC015
     FM070400 18018G26KT 2SM -SNRA BR SCT008 BKN012
     FM070900 20012G18KT P6SM VCSH SCT015 BKN025
     FM071200 21010G18KT P6SM VCSH SCT025 BKN040=

USA.gov is the U.S. government's official web portal to all federal, state and local government web resources and services.